Time;durP1;ratioP1;P1;durP2;ratioP2;P2;SDS_P1;SDS_P2;PMS_P1;PMS_P2;Temp;Humidity;BMP_temperature;BMP_pressure;BME280_temperature;BME280_humidity;BME280_pressure;Samples;Min_cycle;Max_cycle;Signal;HPM_P1;HPM_P2
2022/06/01 00:00:48;;;;;;;;;;;;;;;28.49;25.50;100508.78;4411022;32;20291;-69
2022/06/01 00:03:40;;;;;;;;;;;;;;;28.72;25.33;100510.47;4422672;32;19949;-70
2022/06/01 00:06:28;;;;;;;;;;;;;;;28.84;25.14;100499.34;4425342;32;20773;-69
2022/06/01 00:09:08;;;;;;;;;;;;;;;29.23;24.99;100504.00;4424736;32;19957;-69
2022/06/01 00:11:34;;;;;;;;;;;;;;;29.35;24.81;100508.84;4423421;32;20354;-69
2022/06/01 00:14:02;;;;;;;;;;;;;;;29.35;24.58;100510.97;4424030;32;20737;-69
2022/06/01 00:16:45;;;;;;;;;;;;;;;29.36;24.96;100512.53;4425748;32;19954;-68
2022/06/01 00:19:12;;;;;;;;;;;;;;;29.29;24.72;100510.38;4423309;32;20346;-69
2022/06/01 00:22:11;;;;;;;;;;;;;;;28.39;25.51;100510.63;4424574;32;19973;-69
2022/06/01 00:24:48;;;;;;;;;;;;;;;28.95;25.17;100510.59;4420708;32;20343;-70
2022/06/01 00:27:22;;;;;;;;;;;;;;;29.31;24.76;100508.44;4424499;32;20283;-68
2022/06/01 00:29:49;;;;;;;;;;;;;;;29.03;25.21;100505.63;4419828;32;19988;-68
2022/06/01 00:32:16;;;;;;;;;;;;;;;28.76;25.44;100502.22;4423069;32;19957;-69
2022/06/01 00:35:02;;;;;;;;;;;;;;;28.56;25.65;100503.03;4423300;32;20004;-69
2022/06/01 00:37:28;;;;;;;;;;;;;;;29.07;25.08;100503.16;4426742;32;19957;-69
2022/06/01 00:39:56;;;;;;;;;;;;;;;29.00;25.22;100503.88;4423670;32;20510;-69
2022/06/01 00:42:27;;;;;;;;;;;;;;;28.98;25.35;100507.34;4424633;32;20039;-69
2022/06/01 00:45:21;;;;;;;;;;;;;;;28.82;25.38;100504.94;4422227;32;20451;-69
2022/06/01 00:48:06;;;;;;;;;;;;;;;28.92;25.50;100503.84;4422802;32;19961;-68
2022/06/01 00:50:36;;;;;;;;;;;;;;;29.06;25.31;100513.19;4425667;32;19985;-69
2022/06/01 00:55:44;;;;;;;;;;;;;;;29.30;24.99;100520.62;3950604;32;15825626;-70
2022/06/01 00:58:18;;;;;;;;;;;;;;;29.30;24.99;100520.62;4421009;32;20258;-70
2022/06/01 01:01:08;;;;;;;;;;;;;;;28.78;25.40;100521.91;4430139;32;19946;-70
2022/06/01 01:03:36;;;;;;;;;;;;;;;28.75;25.55;100518.03;4435260;32;19957;-70
2022/06/01 01:06:23;;;;;;;;;;;;;;;29.06;25.30;100510.28;4429950;32;19954;-69
2022/06/01 01:09:00;;;;;;;;;;;;;;;28.36;26.08;100515.44;4433783;32;20059;-70
2022/06/01 01:11:51;;;;;;;;;;;;;;;28.54;25.89;100510.75;4430412;32;20738;-70
2022/06/01 01:14:20;;;;;;;;;;;;;;;28.88;25.54;100517.91;4432871;32;20243;-70
2022/06/01 01:16:47;;;;;;;;;;;;;;;29.10;25.35;100507.00;4419706;32;20022;-70
2022/06/01 01:19:31;;;;;;;;;;;;;;;29.34;24.72;100512.31;4432807;32;19953;-69
2022/06/01 01:27:09;;;;;;;;;;;;;;;29.35;24.49;100510.97;3939067;32;15726523;-69
2022/06/01 01:29:54;;;;;;;;;;;;;;;29.35;24.49;100510.97;4421650;32;20011;-70
2022/06/01 01:32:41;;;;;;;;;;;;;;;28.66;25.72;100504.06;4417862;32;19967;-70
2022/06/01 01:35:27;;;;;;;;;;;;;;;28.71;25.51;100508.94;4396735;32;19991;-70
2022/06/01 01:37:59;;;;;;;;;;;;;;;28.49;25.57;100500.09;4400576;32;19950;-70
2022/06/01 01:40:25;;;;;;;;;;;;;;;27.80;26.56;100491.41;4396210;32;20006;-70
2022/06/01 01:43:23;;;;;;;;;;;;;;;28.61;25.56;100496.34;4392916;32;20017;-69
2022/06/01 01:45:51;;;;;;;;;;;;;;;27.92;26.37;100502.16;4393668;32;19998;-69
2022/06/01 01:48:24;;;;;;;;;;;;;;;28.70;25.58;100492.13;4395622;32;19950;-69
2022/06/01 01:51:29;;;;;;;;;;;;;;;28.87;25.07;100496.06;4395500;32;19954;-69
2022/06/01 01:53:55;;;;;;;;;;;;;;;28.55;25.80;100501.50;4398453;32;20419;-68
2022/06/01 02:01:49;;;;;;;;;;;;;;;29.20;24.95;100499.34;3952808;32;15723511;-69
2022/06/01 02:07:31;;;;;;;;;;;;;;;28.90;24.79;100492.03;4431600;32;19954;-69
2022/06/01 02:12:44;;;;;;;;;;;;;;;28.28;25.71;100484.87;4429508;32;19973;-69
2022/06/01 02:15:34;;;;;;;;;;;;;;;28.90;24.97;100486.22;4430457;32;20021;-69
2022/06/01 02:18:40;;;;;;;;;;;;;;;28.67;25.04;100491.16;4396954;32;20273;-69
2022/06/01 02:21:27;;;;;;;;;;;;;;;28.96;24.58;100483.19;4392064;32;20010;-69
2022/06/01 02:24:18;;;;;;;;;;;;;;;28.93;24.75;100493.03;4392390;32;20197;-69
2022/06/01 02:27:05;;;;;;;;;;;;;;;28.82;24.82;100488.34;4399040;32;19953;-69
2022/06/01 02:29:49;;;;;;;;;;;;;;;28.54;24.94;100499.97;4395603;32;19964;-69
2022/06/01 02:32:26;;;;;;;;;;;;;;;28.70;24.91;100497.91;4394324;32;20448;-69
2022/06/01 02:35:16;;;;;;;;;;;;;;;28.98;24.80;100504.44;4390653;32;20316;-69
2022/06/01 02:37:44;;;;;;;;;;;;;;;28.27;25.46;100501.47;4384620;32;20002;-69
2022/06/01 02:40:30;;;;;;;;;;;;;;;28.31;25.40;100501.09;4385369;32;19980;-69
2022/06/01 02:42:57;;;;;;;;;;;;;;;28.43;25.20;100502.34;4394744;32;20447;-69
2022/06/01 02:45:24;;;;;;;;;;;;;;;28.78;24.90;100498.75;4392240;32;20016;-69
2022/06/01 02:48:10;;;;;;;;;;;;;;;28.24;25.28;100490.25;4392450;32;20517;-69
2022/06/01 02:50:36;;;;;;;;;;;;;;;28.63;25.11;100487.06;4422612;32;19953;-69
2022/06/01 02:53:04;;;;;;;;;;;;;;;28.50;24.90;100496.62;4428582;32;20321;-69
2022/06/01 02:55:32;;;;;;;;;;;;;;;28.49;25.08;100495.09;4430457;32;20339;-69
2022/06/01 02:58:16;;;;;;;;;;;;;;;28.99;24.55;100497.28;4427915;32;19991;-69
2022/06/01 03:01:03;;;;;;;;;;;;;;;28.75;24.79;100497.00;4426154;32;20768;-69
2022/06/01 03:04:00;;;;;;;;;;;;;;;28.67;24.75;100499.84;4430271;32;19968;-69
2022/06/01 03:06:31;;;;;;;;;;;;;;;28.38;24.90;100494.63;4429175;32;20410;-69
2022/06/01 03:09:17;;;;;;;;;;;;;;;28.53;25.01;100497.63;4422641;32;20085;-69
2022/06/01 03:12:04;;;;;;;;;;;;;;;27.76;25.86;100483.09;4423466;32;19985;-69
2022/06/01 03:14:31;;;;;;;;;;;;;;;28.36;25.13;100488.59;4420291;32;19954;-69
2022/06/01 03:17:17;;;;;;;;;;;;;;;28.21;24.97;100482.72;4391170;32;20008;-69
2022/06/01 03:20:08;;;;;;;;;;;;;;;28.29;25.19;100490.09;4424486;32;20037;-69
2022/06/01 03:22:46;;;;;;;;;;;;;;;28.29;25.25;100490.09;4420020;32;20001;-69
2022/06/01 03:25:31;;;;;;;;;;;;;;;28.17;25.17;100488.09;4413820;32;20378;-69
2022/06/01 03:28:18;;;;;;;;;;;;;;;27.32;26.17;100489.19;4395338;32;20362;-69
2022/06/01 03:30:44;;;;;;;;;;;;;;;27.60;26.02;100495.84;4415202;32;19961;-69
2022/06/01 03:33:13;;;;;;;;;;;;;;;27.84;25.81;100497.59;4419224;32;19988;-70
2022/06/01 03:35:59;;;;;;;;;;;;;;;27.22;26.40;100498.28;4406668;32;20302;-69
2022/06/01 03:38:25;;;;;;;;;;;;;;;27.61;25.98;100503.19;4419430;32;19965;-69
2022/06/01 03:41:08;;;;;;;;;;;;;;;27.43;26.09;100501.28;4417623;32;20444;-69
2022/06/01 03:46:20;;;;;;;;;;;;;;;27.52;26.15;100505.78;4422312;32;19957;-69
2022/06/01 03:48:48;;;;;;;;;;;;;;;27.23;26.26;100504.84;4420451;32;19987;-69
2022/06/01 03:51:32;;;;;;;;;;;;;;;27.39;26.33;100505.84;4418153;32;20396;-69
2022/06/01 03:54:18;;;;;;;;;;;;;;;27.63;25.78;100502.59;4420390;32;20689;-69
2022/06/01 03:56:45;;;;;;;;;;;;;;;27.42;26.19;100505.47;4415570;32;19968;-69
2022/06/01 03:59:11;;;;;;;;;;;;;;;27.49;26.19;100512.69;4418130;32;19966;-69
2022/06/01 04:01:52;;;;;;;;;;;;;;;27.64;25.62;100518.63;4419093;32;20394;-69
2022/06/01 04:04:24;;;;;;;;;;;;;;;27.63;26.08;100517.06;4415836;32;19976;-70
2022/06/01 04:06:50;;;;;;;;;;;;;;;27.52;26.36;100517.34;4419019;32;20096;-69
2022/06/01 04:09:36;;;;;;;;;;;;;;;27.57;26.09;100520.09;4420869;32;20324;-69
2022/06/01 04:12:22;;;;;;;;;;;;;;;27.38;26.68;100524.50;4424995;32;20037;-69
2022/06/01 04:15:12;;;;;;;;;;;;;;;27.40;26.38;100531.31;4363434;32;20261;-69
2022/06/01 04:17:41;;;;;;;;;;;;;;;27.32;26.42;100529.63;4412701;32;19953;-69
2022/06/01 04:20:27;;;;;;;;;;;;;;;27.41;26.35;100524.19;4416887;32;20718;-69
2022/06/01 04:23:00;;;;;;;;;;;;;;;27.39;26.49;100529.72;4417769;32;19971;-69
2022/06/01 04:25:30;;;;;;;;;;;;;;;27.53;26.48;100521.78;4419454;32;20463;-69
2022/06/01 04:28:01;;;;;;;;;;;;;;;27.47;26.40;100524.03;4418377;32;19961;-69
2022/06/01 04:30:46;;;;;;;;;;;;;;;27.43;26.48;100532.28;4416071;32;19968;-69
2022/06/01 04:33:13;;;;;;;;;;;;;;;27.37;26.20;100532.41;4419267;32;20441;-69
2022/06/01 04:35:55;;;;;;;;;;;;;;;27.45;26.38;100541.94;4416544;32;19965;-69
2022/06/01 04:38:37;;;;;;;;;;;;;;;27.39;26.54;100532.63;4418361;32;20027;-69
2022/06/01 04:41:04;;;;;;;;;;;;;;;27.47;26.49;100539.28;4416845;32;20595;-69
2022/06/01 04:43:45;;;;;;;;;;;;;;;27.33;26.68;100534.09;4419193;32;20005;-69
2022/06/01 04:46:36;;;;;;;;;;;;;;;27.41;26.75;100547.28;4415923;32;20103;-69
2022/06/01 04:49:14;;;;;;;;;;;;;;;27.48;26.35;100555.28;4418180;32;19962;-69
2022/06/01 04:52:06;;;;;;;;;;;;;;;27.52;26.30;100552.03;4417899;32;19950;-69
2022/06/01 04:54:33;;;;;;;;;;;;;;;27.56;26.15;100555.34;4414711;32;20449;-69
2022/06/01 04:56:58;;;;;;;;;;;;;;;27.59;26.36;100552.13;4416911;32;20053;-69
2022/06/01 04:59:29;;;;;;;;;;;;;;;27.82;25.99;100561.81;4417889;32;19997;-69
2022/06/01 05:01:54;;;;;;;;;;;;;;;28.00;25.69;100565.84;4419239;32;20436;-69
2022/06/01 05:04:20;;;;;;;;;;;;;;;28.12;25.60;100562.13;4416149;32;19993;-69
2022/06/01 05:06:49;;;;;;;;;;;;;;;28.03;25.61;100570.50;4418420;32;19980;-69
2022/06/01 05:09:24;;;;;;;;;;;;;;;28.13;25.15;100565.81;4404907;32;20001;-69
2022/06/01 05:11:56;;;;;;;;;;;;;;;27.95;25.24;100570.44;4420081;32;20288;-69
2022/06/01 05:14:21;;;;;;;;;;;;;;;28.53;24.83;100584.50;4417989;32;19958;-69
2022/06/01 05:16:48;;;;;;;;;;;;;;;28.57;24.49;100570.44;4403158;32;20369;-69
2022/06/01 05:19:14;;;;;;;;;;;;;;;28.70;24.29;100579.78;4402048;32;20005;-69
2022/06/01 05:21:45;;;;;;;;;;;;;;;28.92;24.68;100587.84;4418968;32;19957;-69
2022/06/01 05:24:10;;;;;;;;;;;;;;;28.78;24.45;100583.50;4413425;32;20015;-69
2022/06/01 05:26:48;;;;;;;;;;;;;;;28.73;24.62;100580.75;4416939;32;19997;-69
2022/06/01 05:29:14;;;;;;;;;;;;;;;28.51;24.79;100590.06;4418105;32;20030;-69
2022/06/01 05:31:43;;;;;;;;;;;;;;;28.72;24.42;100585.78;4413343;32;20017;-69
2022/06/01 05:34:08;;;;;;;;;;;;;;;29.24;24.08;100589.59;4417584;32;20326;-69
2022/06/01 05:36:34;;;;;;;;;;;;;;;29.51;23.71;100585.06;4418346;32;19976;-69
2022/06/01 05:39:12;;;;;;;;;;;;;;;29.73;23.43;100587.28;4415615;32;20049;-69
2022/06/01 05:41:37;;;;;;;;;;;;;;;29.45;23.75;100593.16;4417946;32;20641;-69
2022/06/01 05:44:26;;;;;;;;;;;;;;;30.06;23.42;100601.47;4418008;32;19983;-69
2022/06/01 05:46:54;;;;;;;;;;;;;;;30.12;23.02;100596.25;4417920;32;20423;-69
2022/06/01 05:49:19;;;;;;;;;;;;;;;30.32;22.91;100597.47;4419648;32;19981;-69
2022/06/01 05:51:53;;;;;;;;;;;;;;;30.16;22.73;100599.53;4416771;32;19999;-69
2022/06/01 05:54:20;;;;;;;;;;;;;;;30.67;22.03;100593.56;4419128;32;19973;-69
2022/06/01 05:56:50;;;;;;;;;;;;;;;30.44;22.06;100595.72;4417806;32;20008;-69
2022/06/01 05:59:16;;;;;;;;;;;;;;;30.83;22.27;100605.97;4417049;32;19996;-69
2022/06/01 06:01:41;;;;;;;;;;;;;;;30.68;22.03;100598.03;4416844;32;20008;-69
2022/06/01 06:04:07;;;;;;;;;;;;;;;30.88;21.85;100599.94;4420624;32;19993;-69
2022/06/01 06:06:43;;;;;;;;;;;;;;;31.06;22.14;100598.75;4415430;32;20654;-69
2022/06/01 06:09:24;;;;;;;;;;;;;;;31.15;21.81;100609.78;4418146;32;19999;-69
2022/06/01 06:11:51;;;;;;;;;;;;;;;31.45;21.61;100606.00;4415453;32;19961;-69
2022/06/01 06:14:19;;;;;;;;;;;;;;;31.58;21.47;100615.25;4415920;32;20001;-69
2022/06/01 06:17:05;;;;;;;;;;;;;;;31.56;21.28;100608.47;4418092;32;19968;-69
2022/06/01 06:19:42;;;;;;;;;;;;;;;31.98;20.85;100613.13;4416302;32;20667;-69
2022/06/01 06:22:09;;;;;;;;;;;;;;;31.83;20.99;100619.03;4419252;32;20298;-69
2022/06/01 06:24:46;;;;;;;;;;;;;;;31.92;20.82;100611.78;4416198;32;20005;-70
2022/06/01 06:27:13;;;;;;;;;;;;;;;31.82;21.02;100611.69;4418050;32;19972;-69
2022/06/01 06:29:39;;;;;;;;;;;;;;;31.67;21.03;100620.47;4418036;32;20008;-69
2022/06/01 06:32:06;;;;;;;;;;;;;;;31.59;21.27;100618.94;4417529;32;20016;-69
2022/06/01 06:34:32;;;;;;;;;;;;;;;32.01;21.04;100619.91;4418389;32;20021;-69
2022/06/01 06:36:59;;;;;;;;;;;;;;;32.04;20.91;100622.41;4416629;32;20008;-69
2022/06/01 06:39:26;;;;;;;;;;;;;;;32.12;20.75;100623.09;4418730;32;20225;-69
2022/06/01 06:42:06;;;;;;;;;;;;;;;31.97;20.75;100625.38;4415725;32;19957;-70
2022/06/01 06:44:34;;;;;;;;;;;;;;;32.30;20.66;100627.66;4416854;32;20461;-69
2022/06/01 06:47:02;;;;;;;;;;;;;;;32.01;21.04;100631.53;4418781;32;19993;-69
2022/06/01 06:49:27;;;;;;;;;;;;;;;32.17;20.92;100639.59;4421033;32;20004;-69
2022/06/01 06:51:55;;;;;;;;;;;;;;;32.62;20.28;100644.31;4418297;32;20035;-69
2022/06/01 06:54:20;;;;;;;;;;;;;;;32.71;20.57;100648.72;4420184;32;20331;-69
2022/06/01 06:56:47;;;;;;;;;;;;;;;32.36;20.92;100647.81;4420303;32;20007;-68
2022/06/01 06:59:15;;;;;;;;;;;;;;;32.25;21.30;100651.97;4417660;32;19970;-68
2022/06/01 07:01:42;;;;;;;;;;;;;;;32.81;20.74;100655.41;4416306;32;20008;-68
2022/06/01 07:04:08;;;;;;;;;;;;;;;32.74;20.88;100659.19;4419988;32;20258;-69
2022/06/01 07:06:35;;;;;;;;;;;;;;;33.10;20.24;100663.13;4416240;32;20444;-69
2022/06/01 07:09:23;;;;;;;;;;;;;;;33.48;19.92;100668.56;4419918;32;19953;-69
2022/06/01 07:11:48;;;;;;;;;;;;;;;32.04;20.77;100671.13;4418298;32;19997;-69
2022/06/01 07:14:22;;;;;;;;;;;;;;;32.40;20.59;100665.69;4420301;32;19993;-69
2022/06/01 07:16:47;;;;;;;;;;;;;;;32.54;20.51;100679.34;4419380;32;20462;-69
2022/06/01 07:19:14;;;;;;;;;;;;;;;33.39;20.12;100678.00;4419133;32;19994;-69
2022/06/01 07:21:41;;;;;;;;;;;;;;;33.36;19.94;100679.19;4419811;32;19989;-69
2022/06/01 07:24:08;;;;;;;;;;;;;;;33.31;20.04;100678.06;4418583;32;20372;-69
2022/06/01 07:26:55;;;;;;;;;;;;;;;33.56;19.54;100684.63;4416507;32;20342;-70
2022/06/01 07:29:20;;;;;;;;;;;;;;;32.92;19.69;100687.03;4418267;32;19957;-69
2022/06/01 07:31:47;;;;;;;;;;;;;;;33.39;19.42;100690.47;4419002;32;19980;-69
2022/06/01 07:34:37;;;;;;;;;;;;;;;33.66;19.21;100694.25;4416007;32;20374;-70
2022/06/01 07:43:06;;;;;;;;;;;;;;;33.67;19.13;100703.75;4418895;32;19965;-69
2022/06/01 07:45:42;;;;;;;;;;;;;;;34.27;18.55;100703.00;4417319;32;19958;-69
2022/06/01 07:48:09;;;;;;;;;;;;;;;34.42;18.29;100710.78;4414743;32;20045;-69
2022/06/01 07:50:42;;;;;;;;;;;;;;;33.66;18.75;100713.91;4418648;32;19988;-69
2022/06/01 07:53:09;;;;;;;;;;;;;;;33.24;19.27;100711.03;4421344;32;20041;-69
2022/06/01 07:55:53;;;;;;;;;;;;;;;33.94;18.96;100716.28;4417667;32;20502;-69
2022/06/01 07:58:28;;;;;;;;;;;;;;;33.99;18.98;100718.19;4413041;32;20038;-69
2022/06/01 08:00:53;;;;;;;;;;;;;;;34.18;18.73;100712.47;4421976;32;19989;-69
2022/06/01 08:03:21;;;;;;;;;;;;;;;33.63;19.48;100715.09;4420703;32;19965;-70
2022/06/01 08:05:46;;;;;;;;;;;;;;;34.26;18.80;100719.75;4416086;32;19992;-70
2022/06/01 08:08:16;;;;;;;;;;;;;;;33.83;18.79;100717.56;4418524;32;20013;-70
2022/06/01 08:10:41;;;;;;;;;;;;;;;34.49;18.36;100716.50;4417195;32;20507;-69
2022/06/01 08:13:12;;;;;;;;;;;;;;;35.19;17.76;100716.34;4417701;32;19971;-69
2022/06/01 08:15:41;;;;;;;;;;;;;;;34.87;17.93;100721.75;4419696;32;20390;-69
2022/06/01 08:18:09;;;;;;;;;;;;;;;34.81;17.72;100722.03;4419769;32;20220;-69
2022/06/01 08:20:35;;;;;;;;;;;;;;;34.17;18.25;100719.66;4418776;32;20020;-70
2022/06/01 08:23:01;;;;;;;;;;;;;;;34.89;17.96;100727.78;4420537;32;20001;-70
2022/06/01 08:25:27;;;;;;;;;;;;;;;35.40;17.46;100722.38;4421990;32;19965;-70
2022/06/01 08:27:53;;;;;;;;;;;;;;;35.48;17.08;100720.09;4417881;32;20036;-69
2022/06/01 08:30:21;;;;;;;;;;;;;;;35.45;16.59;100724.25;4391666;32;20003;-70
2022/06/01 08:33:10;;;;;;;;;;;;;;;35.40;16.43;100730.41;4415243;32;19999;-70
2022/06/01 08:35:41;;;;;;;;;;;;;;;34.75;17.00;100729.56;4419447;32;19954;-69
2022/06/01 08:38:07;;;;;;;;;;;;;;;34.71;16.78;100732.94;4418587;32;20009;-70
2022/06/01 08:40:36;;;;;;;;;;;;;;;35.23;16.69;100724.66;4417730;32;19950;-69
2022/06/01 08:43:06;;;;;;;;;;;;;;;34.99;17.03;100726.44;4415182;32;20002;-69
2022/06/01 08:45:51;;;;;;;;;;;;;;;35.12;16.88;100728.94;4419678;32;20271;-70
2022/06/01 08:48:19;;;;;;;;;;;;;;;35.42;16.78;100730.56;4413470;32;19972;-70
2022/06/01 08:50:45;;;;;;;;;;;;;;;35.51;16.64;100736.44;4417147;32;19979;-70
2022/06/01 08:53:11;;;;;;;;;;;;;;;35.45;16.79;100741.03;4420158;32;19961;-70
2022/06/01 08:55:48;;;;;;;;;;;;;;;34.85;17.22;100736.22;4416477;32;20023;-70
2022/06/01 08:58:16;;;;;;;;;;;;;;;35.73;16.62;100731.50;4401907;32;19980;-69
2022/06/01 09:00:45;;;;;;;;;;;;;;;35.73;16.56;100738.13;4401668;32;19949;-69
2022/06/01 09:03:16;;;;;;;;;;;;;;;35.42;16.69;100745.19;4415510;32;20072;-70
2022/06/01 09:05:52;;;;;;;;;;;;;;;36.20;15.82;100745.37;4406463;32;20446;-69
2022/06/01 09:08:30;;;;;;;;;;;;;;;35.99;16.50;100743.09;4418118;32;20006;-70
2022/06/01 09:13:52;;;;;;;;;;;;;;;37.79;14.93;100746.69;3953230;32;15723411;-70
2022/06/01 09:16:23;;;;;;;;;;;;;;;37.79;14.93;100746.69;4434646;32;19979;-70
2022/06/01 09:18:52;;;;;;;;;;;;;;;37.77;14.87;100743.59;4435135;32;20000;-70
2022/06/01 09:24:06;;;;;;;;;;;;;;;37.62;14.69;100744.03;4437777;32;19995;-70
2022/06/01 09:26:32;;;;;;;;;;;;;;;37.57;14.89;100742.19;4436127;32;20027;-70
2022/06/01 09:29:20;;;;;;;;;;;;;;;37.19;14.96;100751.28;4431735;32;20044;-70
2022/06/01 09:31:47;;;;;;;;;;;;;;;37.16;14.89;100754.66;4435260;32;20215;-70
2022/06/01 09:34:26;;;;;;;;;;;;;;;36.62;15.49;100747.78;4434247;32;19977;-70
2022/06/01 09:36:54;;;;;;;;;;;;;;;36.43;15.96;100762.47;4422589;32;19997;-70
2022/06/01 09:39:20;;;;;;;;;;;;;;;36.52;16.14;100752.88;4434316;32;20589;-70
2022/06/01 09:41:48;;;;;;;;;;;;;;;35.17;17.25;100759.28;4434101;32;19988;-70
2022/06/01 09:44:18;;;;;;;;;;;;;;;35.15;18.90;100762.81;4435766;32;20011;-69
2022/06/01 09:49:25;;;;;;;;;;;;;;;32.72;21.92;100767.62;3952831;32;15730327;-68
2022/06/01 09:51:56;;;;;;;;;;;;;;;32.72;21.92;100767.62;4431275;32;19953;-68
2022/06/01 09:57:16;;;;;;;;;;;;;;;31.79;27.28;100766.28;3953091;32;15728404;-68
2022/06/01 10:08:16;;;;;;;;;;;;;;;32.14;24.25;100765.19;4430801;32;19962;-69
2022/06/01 10:10:58;;;;;;;;;;;;;;;32.12;24.16;100770.84;4428386;32;20036;-69
2022/06/01 10:13:43;;;;;;;;;;;;;;;31.97;23.85;100776.75;4432870;32;19989;-69
2022/06/01 10:16:19;;;;;;;;;;;;;;;32.93;23.58;100768.06;4415120;32;20033;-69
2022/06/01 10:18:46;;;;;;;;;;;;;;;33.63;21.74;100762.59;4427358;32;19957;-69
2022/06/01 10:21:13;;;;;;;;;;;;;;;33.24;21.61;100777.31;4425135;32;21576;-69
2022/06/01 10:26:20;;;;;;;;;;;;;;;34.29;20.54;100779.87;3958881;32;15722337;-69
2022/06/01 10:28:51;;;;;;;;;;;;;;;34.29;20.54;100779.87;4435840;32;19996;-69
2022/06/01 10:31:24;;;;;;;;;;;;;;;34.23;20.61;100770.62;4429049;32;19965;-69
2022/06/01 10:33:56;;;;;;;;;;;;;;;34.65;19.69;100779.22;4435228;32;20021;-69
2022/06/01 10:36:31;;;;;;;;;;;;;;;34.86;19.42;100782.44;4437736;32;19961;-69
2022/06/01 10:39:01;;;;;;;;;;;;;;;34.97;19.14;100790.63;4437628;32;20306;-69
2022/06/01 10:41:36;;;;;;;;;;;;;;;35.32;19.63;100789.06;4434167;32;20011;-70
2022/06/01 10:44:08;;;;;;;;;;;;;;;36.06;19.42;100785.34;4436797;32;19957;-70
2022/06/01 10:49:22;;;;;;;;;;;;;;;35.94;18.46;100775.63;3953403;32;15733407;-70
2022/06/01 10:51:56;;;;;;;;;;;;;;;35.94;18.46;100775.63;4426445;32;19957;-69
2022/06/01 10:57:18;;;;;;;;;;;;;;;37.51;17.68;100785.81;3952951;32;15722471;-70
2022/06/01 11:00:01;;;;;;;;;;;;;;;37.51;17.68;100785.81;4427019;32;20420;-71
2022/06/01 11:13:33;;;;;;;;;;;;;;;39.87;14.64;100808.09;3952551;32;15722317;-69
2022/06/01 11:31:49;;;;;;;;;;;;;;;37.71;14.70;100813.72;3951752;32;15723481;-71
2022/06/01 11:34:19;;;;;;;;;;;;;;;37.71;14.70;100813.72;4433669;32;19946;-71
2022/06/01 11:44:34;;;;;;;;;;;;;;;38.47;15.05;100824.06;3938312;32;15723145;-71
2022/06/01 11:47:04;;;;;;;;;;;;;;;38.47;15.05;100824.06;4415019;32;19965;-71
2022/06/01 11:49:36;;;;;;;;;;;;;;;38.44;15.22;100828.28;4414576;32;19994;-71
2022/06/01 11:52:13;;;;;;;;;;;;;;;38.95;14.89;100830.22;4412915;32;20013;-71
2022/06/01 11:57:47;;;;;;;;;;;;;;;39.22;13.91;100838.59;3953440;32;15721454;-71
2022/06/01 12:00:33;;;;;;;;;;;;;;;39.22;13.91;100838.59;4432907;32;20001;-71
2022/06/01 12:03:24;;;;;;;;;;;;;;;38.77;14.39;100834.16;4436137;32;20002;-71
2022/06/01 12:06:11;;;;;;;;;;;;;;;38.66;14.72;100837.84;4435181;32;20035;-70
2022/06/01 12:08:41;;;;;;;;;;;;;;;38.67;14.44;100837.19;4431052;32;19961;-69
2022/06/01 12:11:14;;;;;;;;;;;;;;;38.72;14.62;100844.13;4435014;32;20351;-69
2022/06/01 12:19:09;;;;;;;;;;;;;;;40.23;13.03;100845.62;3952390;32;15726149;-70
2022/06/01 12:21:55;;;;;;;;;;;;;;;40.23;13.03;100845.62;4429644;32;20465;-70
2022/06/01 12:30:22;;;;;;;;;;;;;;;40.08;12.00;100855.03;4432287;32;19969;-70
2022/06/01 12:35:39;;;;;;;;;;;;;;;42.12;11.31;100857.16;3952097;32;15722594;-71
2022/06/01 12:38:06;;;;;;;;;;;;;;;42.12;11.31;100857.16;4433283;32;20015;-71
2022/06/01 12:40:32;;;;;;;;;;;;;;;41.43;10.91;100862.28;4432163;32;19957;-71
2022/06/01 12:43:03;;;;;;;;;;;;;;;42.82;10.37;100860.78;4436017;32;19965;-70
2022/06/01 12:45:49;;;;;;;;;;;;;;;43.43;10.17;100859.31;4428367;32;20600;-70
2022/06/01 12:48:37;;;;;;;;;;;;;;;44.79;10.15;100868.41;4435787;32;20657;-69
2022/06/01 12:51:23;;;;;;;;;;;;;;;44.43;9.74;100872.81;4436824;32;19985;-68
2022/06/01 12:53:51;;;;;;;;;;;;;;;44.14;9.61;100872.97;4436930;32;20007;-69
2022/06/01 12:56:21;;;;;;;;;;;;;;;43.27;10.29;100876.34;4436949;32;19997;-69
2022/06/01 12:58:48;;;;;;;;;;;;;;;42.31;10.71;100874.44;4424178;32;20278;-69
2022/06/01 13:01:16;;;;;;;;;;;;;;;41.70;11.50;100873.38;4433982;32;20371;-69
2022/06/01 13:03:45;;;;;;;;;;;;;;;41.26;11.42;100868.72;4431278;32;19988;-69
2022/06/01 13:06:14;;;;;;;;;;;;;;;40.91;11.56;100870.34;4432410;32;20016;-69
2022/06/01 13:08:55;;;;;;;;;;;;;;;39.66;12.42;100871.63;4431652;32;19961;-69
2022/06/01 13:11:24;;;;;;;;;;;;;;;39.75;12.54;100869.94;4433159;32;20366;-69
2022/06/01 13:13:51;;;;;;;;;;;;;;;39.97;12.43;100874.28;4431552;32;19993;-70
2022/06/01 13:16:18;;;;;;;;;;;;;;;39.34;13.16;100872.53;4435235;32;20508;-70
2022/06/01 13:18:44;;;;;;;;;;;;;;;39.19;12.70;100872.25;4436878;32;19998;-70
2022/06/01 13:24:02;;;;;;;;;;;;;;;38.85;12.89;100873.72;3945198;32;15735296;-70
2022/06/01 13:26:50;;;;;;;;;;;;;;;38.85;12.89;100873.72;4429649;32;20051;-70
2022/06/01 13:29:32;;;;;;;;;;;;;;;38.84;13.40;100872.19;4425884;32;20209;-70
2022/06/01 13:32:01;;;;;;;;;;;;;;;36.62;15.03;100876.81;4429083;32;20386;-70
2022/06/01 13:39:53;;;;;;;;;;;;;;;40.55;12.70;100888.91;3954166;32;15721621;-70
2022/06/01 13:42:37;;;;;;;;;;;;;;;40.55;12.70;100888.91;4431032;32;19971;-70
2022/06/01 13:45:21;;;;;;;;;;;;;;;40.10;12.57;100890.56;4429740;32;19960;-70
2022/06/01 13:48:14;;;;;;;;;;;;;;;41.25;12.02;100893.78;4429199;32;19941;-70
2022/06/01 13:51:00;;;;;;;;;;;;;;;40.75;12.50;100898.94;4429291;32;19950;-70
2022/06/01 13:56:08;;;;;;;;;;;;;;;41.47;11.16;100896.44;3964886;31;15716459;-70
2022/06/01 13:59:05;;;;;;;;;;;;;;;41.47;11.16;100896.44;4432016;32;20630;-69
2022/06/01 14:01:53;;;;;;;;;;;;;;;42.44;10.79;100891.37;4436454;32;19968;-70
2022/06/01 14:04:41;;;;;;;;;;;;;;;41.90;11.32;100897.38;4431610;32;20007;-70
2022/06/01 14:07:17;;;;;;;;;;;;;;;42.87;10.64;100898.81;4434076;32;20007;-70
2022/06/01 14:09:46;;;;;;;;;;;;;;;42.97;10.48;100898.53;4435550;32;19997;-70
2022/06/01 14:12:12;;;;;;;;;;;;;;;42.98;10.73;100897.13;4432880;32;20310;-70
2022/06/01 14:14:41;;;;;;;;;;;;;;;42.93;10.71;100896.16;4436182;32;19966;-70
2022/06/01 14:17:13;;;;;;;;;;;;;;;42.65;10.94;100900.63;4432590;32;20008;-70
2022/06/01 14:19:59;;;;;;;;;;;;;;;42.35;11.23;100902.03;4435072;32;19965;-70
2022/06/01 14:22:37;;;;;;;;;;;;;;;41.78;11.72;100909.31;4434976;32;19992;-70
2022/06/01 14:31:03;;;;;;;;;;;;;;;41.81;12.13;100919.03;4430784;32;21524;-70
2022/06/01 14:33:49;;;;;;;;;;;;;;;41.28;12.50;100916.09;4433997;32;20023;-70
2022/06/01 14:36:16;;;;;;;;;;;;;;;42.28;11.70;100920.12;4434239;32;20373;-70
2022/06/01 14:39:02;;;;;;;;;;;;;;;42.28;11.65;100920.88;4421767;32;19972;-70
2022/06/01 14:41:45;;;;;;;;;;;;;;;41.94;11.65;100927.16;4429358;32;20594;-70
2022/06/01 14:44:31;;;;;;;;;;;;;;;41.40;11.89;100921.91;4433297;32;20304;-70
2022/06/01 14:46:58;;;;;;;;;;;;;;;40.17;12.76;100931.56;4431609;32;20393;-70
2022/06/01 14:49:35;;;;;;;;;;;;;;;40.19;12.69;100937.59;4435411;32;20022;-70
2022/06/01 14:52:02;;;;;;;;;;;;;;;38.26;14.05;100935.84;4435986;32;19965;-70
2022/06/01 14:54:33;;;;;;;;;;;;;;;38.56;13.67;100937.19;4434919;32;20011;-70
2022/06/01 14:56:59;;;;;;;;;;;;;;;37.81;14.01;100934.88;4428521;32;19985;-70
2022/06/01 14:59:25;;;;;;;;;;;;;;;37.40;14.32;100932.56;4431928;32;20387;-70
2022/06/01 15:01:54;;;;;;;;;;;;;;;37.93;13.74;100940.81;4431545;32;20197;-70
2022/06/01 15:04:28;;;;;;;;;;;;;;;38.75;12.95;100951.72;4428898;32;19979;-70
2022/06/01 15:07:14;;;;;;;;;;;;;;;40.74;11.58;100947.59;4382156;32;19988;-70
2022/06/01 15:10:03;;;;;;;;;;;;;;;41.32;11.00;100948.81;4423052;32;19990;-70
2022/06/01 15:12:38;;;;;;;;;;;;;;;43.58;9.10;100955.63;4418853;32;19985;-70
2022/06/01 15:15:25;;;;;;;;;;;;;;;45.57;8.49;100957.03;4417003;32;20004;-70